sensor_id;sensor_type;location;lat;lon;timestamp;P1;durP1;ratioP1;P2;durP2;ratioP2
70270;SDS011;57680;54.292;18.598;2023-02-01T00:01:16;5.28;;;1.00;;
70270;SDS011;57680;54.292;18.598;2023-02-01T00:03:42;5.17;;;0.80;;
70270;SDS011;57680;54.292;18.598;2023-02-01T00:06:07;3.95;;;0.80;;
70270;SDS011;57680;54.292;18.598;2023-02-01T00:08:33;4.03;;;0.83;;
70270;SDS011;57680;54.292;18.598;2023-02-01T00:13:33;5.65;;;0.77;;
70270;SDS011;57680;54.292;18.598;2023-02-01T00:16:12;5.13;;;0.98;;
70270;SDS011;57680;54.292;18.598;2023-02-01T00:18:41;5.70;;;1.00;;
70270;SDS011;57680;54.292;18.598;2023-02-01T00:21:07;4.45;;;0.82;;
70270;SDS011;57680;54.292;18.598;2023-02-01T00:23:35;7.65;;;0.90;;
70270;SDS011;57680;54.292;18.598;2023-02-01T00:26:01;5.57;;;0.77;;
70270;SDS011;57680;54.292;18.598;2023-02-01T00:28:28;5.57;;;0.80;;
70270;SDS011;57680;54.292;18.598;2023-02-01T00:30:57;5.33;;;0.77;;
70270;SDS011;57680;54.292;18.598;2023-02-01T00:33:24;5.05;;;0.93;;
70270;SDS011;57680;54.292;18.598;2023-02-01T00:35:50;2.97;;;0.80;;
70270;SDS011;57680;54.292;18.598;2023-02-01T00:38:15;9.32;;;1.45;;
70270;SDS011;57680;54.292;18.598;2023-02-01T00:40:41;8.70;;;1.70;;
70270;SDS011;57680;54.292;18.598;2023-02-01T00:43:06;5.03;;;1.30;;
70270;SDS011;57680;54.292;18.598;2023-02-01T00:45:31;2.80;;;0.70;;
70270;SDS011;57680;54.292;18.598;2023-02-01T00:47:57;8.83;;;1.43;;
70270;SDS011;57680;54.292;18.598;2023-02-01T00:50:22;2.77;;;1.40;;
70270;SDS011;57680;54.292;18.598;2023-02-01T00:52:47;5.00;;;0.90;;
70270;SDS011;57680;54.292;18.598;2023-02-01T00:55:13;5.20;;;0.83;;
70270;SDS011;57680;54.292;18.598;2023-02-01T00:57:38;3.83;;;0.80;;
70270;SDS011;57680;54.292;18.598;2023-02-01T01:00:04;1.90;;;0.70;;
70270;SDS011;57680;54.292;18.598;2023-02-01T01:02:30;4.65;;;0.90;;
70270;SDS011;57680;54.292;18.598;2023-02-01T01:04:55;3.53;;;0.80;;
70270;SDS011;57680;54.292;18.598;2023-02-01T01:07:21;3.03;;;0.73;;
70270;SDS011;57680;54.292;18.598;2023-02-01T01:09:46;5.07;;;0.63;;
70270;SDS011;57680;54.292;18.598;2023-02-01T01:12:12;4.60;;;1.03;;
70270;SDS011;57680;54.292;18.598;2023-02-01T01:14:37;8.07;;;1.57;;
70270;SDS011;57680;54.292;18.598;2023-02-01T01:17:02;8.40;;;1.50;;
70270;SDS011;57680;54.292;18.598;2023-02-01T01:19:28;6.30;;;1.15;;
70270;SDS011;57680;54.292;18.598;2023-02-01T01:21:53;7.47;;;1.00;;
70270;SDS011;57680;54.292;18.598;2023-02-01T01:24:18;3.47;;;0.80;;
70270;SDS011;57680;54.292;18.598;2023-02-01T01:26:44;4.47;;;0.80;;
70270;SDS011;57680;54.292;18.598;2023-02-01T01:29:10;6.13;;;0.90;;
70270;SDS011;57680;54.292;18.598;2023-02-01T01:31:36;7.17;;;0.63;;
70270;SDS011;57680;54.292;18.598;2023-02-01T01:34:01;3.13;;;0.70;;
70270;SDS011;57680;54.292;18.598;2023-02-01T01:36:27;4.27;;;0.87;;
70270;SDS011;57680;54.292;18.598;2023-02-01T01:38:53;2.65;;;0.90;;
70270;SDS011;57680;54.292;18.598;2023-02-01T01:41:20;4.50;;;0.87;;
70270;SDS011;57680;54.292;18.598;2023-02-01T01:46:30;5.18;;;1.08;;
70270;SDS011;57680;54.292;18.598;2023-02-01T01:51:41;1.92;;;0.43;;
70270;SDS011;57680;54.292;18.598;2023-02-01T01:54:16;4.27;;;0.70;;
70270;SDS011;57680;54.292;18.598;2023-02-01T01:56:48;5.53;;;0.60;;
70270;SDS011;57680;54.292;18.598;2023-02-01T01:59:19;3.30;;;0.60;;
70270;SDS011;57680;54.292;18.598;2023-02-01T02:01:46;2.65;;;0.50;;
70270;SDS011;57680;54.292;18.598;2023-02-01T02:04:12;5.50;;;0.90;;
70270;SDS011;57680;54.292;18.598;2023-02-01T02:06:48;6.22;;;0.93;;
70270;SDS011;57680;54.292;18.598;2023-02-01T02:09:20;3.80;;;0.63;;
70270;SDS011;57680;54.292;18.598;2023-02-01T02:11:46;6.68;;;0.90;;
70270;SDS011;57680;54.292;18.598;2023-02-01T02:14:12;7.18;;;1.30;;
70270;SDS011;57680;54.292;18.598;2023-02-01T02:28:22;4.45;;;0.60;;
70270;SDS011;57680;54.292;18.598;2023-02-01T02:39:29;2.78;;;0.50;;
70270;SDS011;57680;54.292;18.598;2023-02-01T02:42:25;3.05;;;0.50;;
70270;SDS011;57680;54.292;18.598;2023-02-01T02:45:38;2.43;;;0.50;;
70270;SDS011;57680;54.292;18.598;2023-02-01T02:57:02;2.28;;;0.57;;
70270;SDS011;57680;54.292;18.598;2023-02-01T02:59:49;3.97;;;0.70;;
70270;SDS011;57680;54.292;18.598;2023-02-01T03:02:34;3.72;;;0.40;;
70270;SDS011;57680;54.292;18.598;2023-02-01T03:05:18;2.63;;;0.75;;
70270;SDS011;57680;54.292;18.598;2023-02-01T03:13:02;4.53;;;0.83;;
70270;SDS011;57680;54.292;18.598;2023-02-01T03:15:51;6.32;;;0.47;;
70270;SDS011;57680;54.292;18.598;2023-02-01T03:18:32;2.85;;;0.50;;
70270;SDS011;57680;54.292;18.598;2023-02-01T03:21:41;2.50;;;0.32;;
70270;SDS011;57680;54.292;18.598;2023-02-01T03:24:32;4.63;;;0.90;;
70270;SDS011;57680;54.292;18.598;2023-02-01T03:32:37;5.30;;;1.25;;
70270;SDS011;57680;54.292;18.598;2023-02-01T03:35:35;7.93;;;0.90;;
70270;SDS011;57680;54.292;18.598;2023-02-01T03:38:20;8.93;;;0.90;;
70270;SDS011;57680;54.292;18.598;2023-02-01T03:44:06;9.07;;;1.50;;
70270;SDS011;57680;54.292;18.598;2023-02-01T03:46:42;7.68;;;0.80;;
70270;SDS011;57680;54.292;18.598;2023-02-01T03:49:13;5.15;;;0.90;;
70270;SDS011;57680;54.292;18.598;2023-02-01T03:51:44;7.85;;;0.88;;
70270;SDS011;57680;54.292;18.598;2023-02-01T03:54:11;7.60;;;0.93;;
70270;SDS011;57680;54.292;18.598;2023-02-01T03:56:40;4.20;;;0.68;;
70270;SDS011;57680;54.292;18.598;2023-02-01T03:59:09;4.93;;;1.13;;
70270;SDS011;57680;54.292;18.598;2023-02-01T04:01:35;7.05;;;0.80;;
70270;SDS011;57680;54.292;18.598;2023-02-01T04:04:01;7.17;;;1.30;;
70270;SDS011;57680;54.292;18.598;2023-02-01T04:06:26;7.10;;;0.70;;
70270;SDS011;57680;54.292;18.598;2023-02-01T04:08:52;5.78;;;0.88;;
70270;SDS011;57680;54.292;18.598;2023-02-01T04:11:17;4.47;;;0.60;;
70270;SDS011;57680;54.292;18.598;2023-02-01T04:13:43;5.53;;;0.90;;
70270;SDS011;57680;54.292;18.598;2023-02-01T04:16:09;5.05;;;1.00;;
70270;SDS011;57680;54.292;18.598;2023-02-01T04:18:35;12.75;;;0.90;;
70270;SDS011;57680;54.292;18.598;2023-02-01T04:21:00;9.30;;;1.50;;
70270;SDS011;57680;54.292;18.598;2023-02-01T04:23:27;6.43;;;0.75;;
70270;SDS011;57680;54.292;18.598;2023-02-01T04:25:52;5.17;;;0.90;;
70270;SDS011;57680;54.292;18.598;2023-02-01T04:28:18;8.10;;;1.02;;
70270;SDS011;57680;54.292;18.598;2023-02-01T04:30:43;5.80;;;0.63;;
70270;SDS011;57680;54.292;18.598;2023-02-01T04:33:10;6.28;;;1.08;;
70270;SDS011;57680;54.292;18.598;2023-02-01T04:35:38;2.63;;;0.87;;
70270;SDS011;57680;54.292;18.598;2023-02-01T04:38:04;2.83;;;0.47;;
70270;SDS011;57680;54.292;18.598;2023-02-01T04:40:30;8.37;;;1.13;;
70270;SDS011;57680;54.292;18.598;2023-02-01T04:42:55;7.83;;;0.73;;
70270;SDS011;57680;54.292;18.598;2023-02-01T04:45:20;8.27;;;1.03;;
70270;SDS011;57680;54.292;18.598;2023-02-01T04:47:46;4.97;;;0.83;;
70270;SDS011;57680;54.292;18.598;2023-02-01T04:50:13;3.80;;;0.80;;
70270;SDS011;57680;54.292;18.598;2023-02-01T04:52:38;5.33;;;0.57;;
70270;SDS011;57680;54.292;18.598;2023-02-01T04:55:04;7.43;;;0.83;;
70270;SDS011;57680;54.292;18.598;2023-02-01T04:57:30;4.95;;;0.60;;
70270;SDS011;57680;54.292;18.598;2023-02-01T04:59:55;7.40;;;1.20;;
70270;SDS011;57680;54.292;18.598;2023-02-01T05:02:21;6.03;;;0.73;;
70270;SDS011;57680;54.292;18.598;2023-02-01T05:04:47;5.03;;;0.73;;
70270;SDS011;57680;54.292;18.598;2023-02-01T05:07:15;6.50;;;1.10;;
70270;SDS011;57680;54.292;18.598;2023-02-01T05:09:41;6.23;;;1.10;;
70270;SDS011;57680;54.292;18.598;2023-02-01T05:12:06;6.83;;;0.70;;
70270;SDS011;57680;54.292;18.598;2023-02-01T05:14:53;4.72;;;0.90;;
70270;SDS011;57680;54.292;18.598;2023-02-01T05:17:18;4.50;;;0.80;;
70270;SDS011;57680;54.292;18.598;2023-02-01T05:19:44;8.85;;;1.00;;
70270;SDS011;57680;54.292;18.598;2023-02-01T05:22:09;5.93;;;1.07;;
70270;SDS011;57680;54.292;18.598;2023-02-01T05:24:34;5.37;;;0.57;;
70270;SDS011;57680;54.292;18.598;2023-02-01T05:27:00;6.17;;;1.00;;
70270;SDS011;57680;54.292;18.598;2023-02-01T05:29:25;5.37;;;0.80;;
70270;SDS011;57680;54.292;18.598;2023-02-01T05:31:50;7.13;;;1.13;;
70270;SDS011;57680;54.292;18.598;2023-02-01T05:34:16;7.10;;;1.00;;
70270;SDS011;57680;54.292;18.598;2023-02-01T05:36:42;6.83;;;1.17;;
70270;SDS011;57680;54.292;18.598;2023-02-01T05:39:08;5.38;;;1.05;;
70270;SDS011;57680;54.292;18.598;2023-02-01T05:41:33;8.23;;;1.20;;
70270;SDS011;57680;54.292;18.598;2023-02-01T05:43:59;6.60;;;1.60;;
70270;SDS011;57680;54.292;18.598;2023-02-01T05:46:24;7.70;;;1.50;;
70270;SDS011;57680;54.292;18.598;2023-02-01T05:48:50;8.57;;;1.57;;
70270;SDS011;57680;54.292;18.598;2023-02-01T05:51:15;13.23;;;1.37;;
70270;SDS011;57680;54.292;18.598;2023-02-01T05:53:41;5.60;;;1.00;;
70270;SDS011;57680;54.292;18.598;2023-02-01T05:56:06;3.73;;;1.13;;
70270;SDS011;57680;54.292;18.598;2023-02-01T05:58:32;5.25;;;1.13;;
70270;SDS011;57680;54.292;18.598;2023-02-01T06:01:01;6.53;;;1.10;;
70270;SDS011;57680;54.292;18.598;2023-02-01T06:03:27;5.50;;;0.80;;
70270;SDS011;57680;54.292;18.598;2023-02-01T06:05:53;7.83;;;1.27;;
70270;SDS011;57680;54.292;18.598;2023-02-01T06:08:18;7.70;;;1.40;;
70270;SDS011;57680;54.292;18.598;2023-02-01T06:10:44;11.90;;;3.23;;
70270;SDS011;57680;54.292;18.598;2023-02-01T06:13:09;5.93;;;1.10;;
70270;SDS011;57680;54.292;18.598;2023-02-01T06:15:35;4.90;;;1.00;;
70270;SDS011;57680;54.292;18.598;2023-02-01T06:18:02;4.72;;;0.90;;
70270;SDS011;57680;54.292;18.598;2023-02-01T06:20:28;6.78;;;1.00;;
70270;SDS011;57680;54.292;18.598;2023-02-01T06:22:54;3.90;;;1.10;;
70270;SDS011;57680;54.292;18.598;2023-02-01T06:25:19;8.15;;;1.30;;
70270;SDS011;57680;54.292;18.598;2023-02-01T06:27:46;4.57;;;1.07;;
70270;SDS011;57680;54.292;18.598;2023-02-01T06:30:12;4.22;;;0.90;;
70270;SDS011;57680;54.292;18.598;2023-02-01T06:32:41;5.95;;;1.52;;
70270;SDS011;57680;54.292;18.598;2023-02-01T06:35:07;6.13;;;1.40;;
70270;SDS011;57680;54.292;18.598;2023-02-01T06:37:36;5.75;;;1.23;;
70270;SDS011;57680;54.292;18.598;2023-02-01T06:40:02;4.95;;;1.00;;
70270;SDS011;57680;54.292;18.598;2023-02-01T06:42:27;6.23;;;1.10;;
70270;SDS011;57680;54.292;18.598;2023-02-01T06:44:53;6.72;;;1.30;;
70270;SDS011;57680;54.292;18.598;2023-02-01T06:47:18;7.97;;;1.13;;
70270;SDS011;57680;54.292;18.598;2023-02-01T06:49:45;9.77;;;1.60;;
70270;SDS011;57680;54.292;18.598;2023-02-01T06:52:10;8.05;;;1.50;;
70270;SDS011;57680;54.292;18.598;2023-02-01T06:54:35;8.83;;;1.37;;
70270;SDS011;57680;54.292;18.598;2023-02-01T06:57:02;9.23;;;1.85;;
70270;SDS011;57680;54.292;18.598;2023-02-01T06:59:28;8.55;;;1.38;;
70270;SDS011;57680;54.292;18.598;2023-02-01T07:01:53;8.00;;;1.27;;
70270;SDS011;57680;54.292;18.598;2023-02-01T07:04:19;5.53;;;1.17;;
70270;SDS011;57680;54.292;18.598;2023-02-01T07:06:44;6.55;;;1.20;;
70270;SDS011;57680;54.292;18.598;2023-02-01T07:09:10;5.93;;;1.33;;
70270;SDS011;57680;54.292;18.598;2023-02-01T07:11:37;5.28;;;1.20;;
70270;SDS011;57680;54.292;18.598;2023-02-01T07:14:06;4.95;;;1.00;;
70270;SDS011;57680;54.292;18.598;2023-02-01T07:16:31;5.07;;;0.93;;
70270;SDS011;57680;54.292;18.598;2023-02-01T07:18:56;5.00;;;0.90;;
70270;SDS011;57680;54.292;18.598;2023-02-01T07:21:22;7.38;;;1.27;;
70270;SDS011;57680;54.292;18.598;2023-02-01T07:23:47;6.97;;;1.07;;
70270;SDS011;57680;54.292;18.598;2023-02-01T07:26:13;9.17;;;1.50;;
70270;SDS011;57680;54.292;18.598;2023-02-01T07:28:41;7.15;;;1.08;;
70270;SDS011;57680;54.292;18.598;2023-02-01T07:31:08;9.43;;;1.83;;
70270;SDS011;57680;54.292;18.598;2023-02-01T07:33:40;7.87;;;1.40;;
70270;SDS011;57680;54.292;18.598;2023-02-01T07:36:07;9.73;;;1.98;;
70270;SDS011;57680;54.292;18.598;2023-02-01T07:38:35;9.60;;;1.60;;
70270;SDS011;57680;54.292;18.598;2023-02-01T07:41:01;9.17;;;2.03;;
70270;SDS011;57680;54.292;18.598;2023-02-01T07:43:28;9.82;;;1.40;;
70270;SDS011;57680;54.292;18.598;2023-02-01T07:45:55;7.28;;;1.48;;
70270;SDS011;57680;54.292;18.598;2023-02-01T07:48:21;9.45;;;1.52;;
70270;SDS011;57680;54.292;18.598;2023-02-01T07:50:47;10.52;;;2.08;;
70270;SDS011;57680;54.292;18.598;2023-02-01T07:53:13;10.53;;;2.20;;
70270;SDS011;57680;54.292;18.598;2023-02-01T07:55:39;12.93;;;1.77;;
70270;SDS011;57680;54.292;18.598;2023-02-01T07:58:05;11.45;;;2.08;;
70270;SDS011;57680;54.292;18.598;2023-02-01T08:00:30;8.43;;;1.67;;
70270;SDS011;57680;54.292;18.598;2023-02-01T08:03:15;8.52;;;1.52;;
70270;SDS011;57680;54.292;18.598;2023-02-01T08:05:40;14.10;;;2.30;;
70270;SDS011;57680;54.292;18.598;2023-02-01T08:08:06;7.87;;;1.77;;
70270;SDS011;57680;54.292;18.598;2023-02-01T08:10:31;14.47;;;1.87;;
70270;SDS011;57680;54.292;18.598;2023-02-01T08:12:57;14.27;;;2.47;;
70270;SDS011;57680;54.292;18.598;2023-02-01T08:15:24;9.17;;;1.80;;
70270;SDS011;57680;54.292;18.598;2023-02-01T08:17:50;10.60;;;1.60;;
70270;SDS011;57680;54.292;18.598;2023-02-01T08:20:17;6.78;;;1.25;;
70270;SDS011;57680;54.292;18.598;2023-02-01T08:22:43;11.52;;;2.25;;
70270;SDS011;57680;54.292;18.598;2023-02-01T08:25:10;6.23;;;1.37;;
70270;SDS011;57680;54.292;18.598;2023-02-01T08:27:36;16.02;;;1.40;;
70270;SDS011;57680;54.292;18.598;2023-02-01T08:30:02;17.50;;;2.55;;
70270;SDS011;57680;54.292;18.598;2023-02-01T08:32:29;8.18;;;1.52;;
70270;SDS011;57680;54.292;18.598;2023-02-01T08:34:55;10.97;;;1.73;;
70270;SDS011;57680;54.292;18.598;2023-02-01T08:37:20;9.43;;;1.73;;
70270;SDS011;57680;54.292;18.598;2023-02-01T08:39:47;9.50;;;1.42;;
70270;SDS011;57680;54.292;18.598;2023-02-01T08:42:15;10.45;;;1.85;;
70270;SDS011;57680;54.292;18.598;2023-02-01T08:44:59;10.02;;;2.17;;
70270;SDS011;57680;54.292;18.598;2023-02-01T08:47:25;10.40;;;2.27;;
70270;SDS011;57680;54.292;18.598;2023-02-01T08:49:50;13.23;;;2.53;;
70270;SDS011;57680;54.292;18.598;2023-02-01T08:52:16;6.55;;;1.58;;
70270;SDS011;57680;54.292;18.598;2023-02-01T08:54:42;14.20;;;2.07;;
70270;SDS011;57680;54.292;18.598;2023-02-01T08:57:07;13.70;;;2.20;;
70270;SDS011;57680;54.292;18.598;2023-02-01T08:59:34;10.40;;;1.63;;
70270;SDS011;57680;54.292;18.598;2023-02-01T09:02:00;8.95;;;2.08;;
70270;SDS011;57680;54.292;18.598;2023-02-01T09:04:25;12.73;;;2.47;;
70270;SDS011;57680;54.292;18.598;2023-02-01T09:06:51;7.10;;;1.23;;
70270;SDS011;57680;54.292;18.598;2023-02-01T09:09:16;8.73;;;1.90;;
70270;SDS011;57680;54.292;18.598;2023-02-01T09:11:42;7.33;;;1.63;;
70270;SDS011;57680;54.292;18.598;2023-02-01T09:14:07;10.43;;;1.70;;
70270;SDS011;57680;54.292;18.598;2023-02-01T09:16:32;8.03;;;2.10;;
70270;SDS011;57680;54.292;18.598;2023-02-01T09:18:58;6.33;;;1.43;;
70270;SDS011;57680;54.292;18.598;2023-02-01T09:21:23;5.57;;;1.00;;
70270;SDS011;57680;54.292;18.598;2023-02-01T09:23:50;7.10;;;1.30;;
70270;SDS011;57680;54.292;18.598;2023-02-01T09:26:16;6.45;;;1.17;;
70270;SDS011;57680;54.292;18.598;2023-02-01T09:28:41;9.30;;;1.80;;
70270;SDS011;57680;54.292;18.598;2023-02-01T09:31:06;11.43;;;2.23;;
70270;SDS011;57680;54.292;18.598;2023-02-01T09:33:32;9.17;;;1.50;;
70270;SDS011;57680;54.292;18.598;2023-02-01T09:35:58;10.13;;;2.00;;
70270;SDS011;57680;54.292;18.598;2023-02-01T09:38:24;10.05;;;1.52;;
70270;SDS011;57680;54.292;18.598;2023-02-01T09:40:52;11.37;;;1.50;;
70270;SDS011;57680;54.292;18.598;2023-02-01T09:46:22;6.40;;;1.00;;
70270;SDS011;57680;54.292;18.598;2023-02-01T09:48:54;7.47;;;1.23;;
70270;SDS011;57680;54.292;18.598;2023-02-01T09:51:25;4.57;;;1.03;;
70270;SDS011;57680;54.292;18.598;2023-02-01T09:54:06;6.75;;;1.40;;
70270;SDS011;57680;54.292;18.598;2023-02-01T09:56:42;9.18;;;1.73;;
70270;SDS011;57680;54.292;18.598;2023-02-01T10:01:40;6.45;;;1.23;;
70270;SDS011;57680;54.292;18.598;2023-02-01T10:04:10;6.40;;;1.00;;
70270;SDS011;57680;54.292;18.598;2023-02-01T10:06:44;7.03;;;1.40;;
70270;SDS011;57680;54.292;18.598;2023-02-01T10:15:46;8.95;;;1.63;;
70270;SDS011;57680;54.292;18.598;2023-02-01T10:23:56;4.80;;;1.25;;
70270;SDS011;57680;54.292;18.598;2023-02-01T10:26:38;6.03;;;1.10;;
70270;SDS011;57680;54.292;18.598;2023-02-01T10:29:12;3.88;;;0.70;;
70270;SDS011;57680;54.292;18.598;2023-02-01T10:31:41;4.53;;;1.00;;
70270;SDS011;57680;54.292;18.598;2023-02-01T10:34:14;6.90;;;1.08;;
70270;SDS011;57680;54.292;18.598;2023-02-01T10:36:56;6.55;;;1.17;;
70270;SDS011;57680;54.292;18.598;2023-02-01T10:39:25;4.70;;;1.50;;
70270;SDS011;57680;54.292;18.598;2023-02-01T10:41:51;6.67;;;1.67;;
70270;SDS011;57680;54.292;18.598;2023-02-01T10:44:18;9.38;;;1.90;;
70270;SDS011;57680;54.292;18.598;2023-02-01T10:46:47;11.77;;;2.00;;
70270;SDS011;57680;54.292;18.598;2023-02-01T10:49:16;10.63;;;1.80;;
70270;SDS011;57680;54.292;18.598;2023-02-01T10:52:04;9.85;;;1.83;;
70270;SDS011;57680;54.292;18.598;2023-02-01T10:54:38;5.55;;;1.60;;
70270;SDS011;57680;54.292;18.598;2023-02-01T10:57:08;6.95;;;1.63;;
70270;SDS011;57680;54.292;18.598;2023-02-01T10:59:56;7.25;;;1.98;;
70270;SDS011;57680;54.292;18.598;2023-02-01T11:02:27;5.43;;;1.13;;
70270;SDS011;57680;54.292;18.598;2023-02-01T11:05:03;6.57;;;1.20;;
70270;SDS011;57680;54.292;18.598;2023-02-01T11:07:33;7.57;;;1.20;;
70270;SDS011;57680;54.292;18.598;2023-02-01T11:09:59;5.75;;;1.20;;
70270;SDS011;57680;54.292;18.598;2023-02-01T11:12:34;7.28;;;1.52;;
70270;SDS011;57680;54.292;18.598;2023-02-01T11:15:14;6.57;;;1.30;;
70270;SDS011;57680;54.292;18.598;2023-02-01T11:17:47;6.35;;;1.33;;
70270;SDS011;57680;54.292;18.598;2023-02-01T11:20:17;8.10;;;1.50;;
70270;SDS011;57680;54.292;18.598;2023-02-01T11:22:48;3.80;;;0.95;;
70270;SDS011;57680;54.292;18.598;2023-02-01T11:25:19;2.55;;;0.85;;
70270;SDS011;57680;54.292;18.598;2023-02-01T11:27:46;2.97;;;0.70;;
70270;SDS011;57680;54.292;18.598;2023-02-01T11:30:17;4.72;;;0.80;;
70270;SDS011;57680;54.292;18.598;2023-02-01T11:32:48;5.60;;;1.23;;
70270;SDS011;57680;54.292;18.598;2023-02-01T11:35:17;6.97;;;1.30;;
70270;SDS011;57680;54.292;18.598;2023-02-01T11:37:45;10.52;;;1.10;;
70270;SDS011;57680;54.292;18.598;2023-02-01T11:42:59;7.17;;;1.50;;
70270;SDS011;57680;54.292;18.598;2023-02-01T11:45:33;6.18;;;1.80;;
70270;SDS011;57680;54.292;18.598;2023-02-01T11:48:02;5.82;;;1.40;;
70270;SDS011;57680;54.292;18.598;2023-02-01T12:02:19;7.95;;;1.27;;
70270;SDS011;57680;54.292;18.598;2023-02-01T12:04:58;10.00;;;1.77;;
70270;SDS011;57680;54.292;18.598;2023-02-01T12:10:50;4.47;;;1.17;;
70270;SDS011;57680;54.292;18.598;2023-02-01T12:16:14;7.47;;;1.65;;
70270;SDS011;57680;54.292;18.598;2023-02-01T12:21:31;55.53;;;3.40;;
70270;SDS011;57680;54.292;18.598;2023-02-01T12:27:30;10.43;;;2.35;;
70270;SDS011;57680;54.292;18.598;2023-02-01T12:32:50;7.72;;;1.92;;
70270;SDS011;57680;54.292;18.598;2023-02-01T12:51:38;5.37;;;1.10;;
70270;SDS011;57680;54.292;18.598;2023-02-01T12:56:48;4.50;;;1.05;;
70270;SDS011;57680;54.292;18.598;2023-02-01T12:59:27;3.45;;;0.90;;
70270;SDS011;57680;54.292;18.598;2023-02-01T13:04:55;6.53;;;0.97;;
70270;SDS011;57680;54.292;18.598;2023-02-01T13:07:37;5.90;;;1.25;;
70270;SDS011;57680;54.292;18.598;2023-02-01T13:15:44;4.60;;;1.42;;
70270;SDS011;57680;54.292;18.598;2023-02-01T13:18:18;7.37;;;2.40;;
70270;SDS011;57680;54.292;18.598;2023-02-01T13:21:06;4.50;;;1.30;;
70270;SDS011;57680;54.292;18.598;2023-02-01T13:23:39;8.68;;;1.70;;
70270;SDS011;57680;54.292;18.598;2023-02-01T13:26:07;10.43;;;2.10;;
70270;SDS011;57680;54.292;18.598;2023-02-01T13:39:23;7.95;;;2.10;;
70270;SDS011;57680;54.292;18.598;2023-02-01T13:42:21;7.73;;;2.00;;
70270;SDS011;57680;54.292;18.598;2023-02-01T13:44:50;10.60;;;1.92;;
70270;SDS011;57680;54.292;18.598;2023-02-01T13:47:29;7.55;;;1.75;;
70270;SDS011;57680;54.292;18.598;2023-02-01T13:50:11;9.43;;;2.03;;
70270;SDS011;57680;54.292;18.598;2023-02-01T13:53:02;8.25;;;1.63;;
70270;SDS011;57680;54.292;18.598;2023-02-01T13:55:40;6.93;;;1.47;;
70270;SDS011;57680;54.292;18.598;2023-02-01T13:58:28;7.97;;;1.77;;
70270;SDS011;57680;54.292;18.598;2023-02-01T14:01:31;5.97;;;1.25;;
70270;SDS011;57680;54.292;18.598;2023-02-01T14:14:07;9.18;;;2.28;;
70270;SDS011;57680;54.292;18.598;2023-02-01T14:16:38;7.73;;;1.97;;
70270;SDS011;57680;54.292;18.598;2023-02-01T14:19:06;8.70;;;1.70;;
70270;SDS011;57680;54.292;18.598;2023-02-01T14:21:35;6.53;;;1.37;;
70270;SDS011;57680;54.292;18.598;2023-02-01T14:24:16;6.13;;;1.60;;
70270;SDS011;57680;54.292;18.598;2023-02-01T14:26:52;9.13;;;1.58;;
70270;SDS011;57680;54.292;18.598;2023-02-01T14:29:31;5.43;;;2.15;;
70270;SDS011;57680;54.292;18.598;2023-02-01T14:32:03;7.43;;;1.73;;
70270;SDS011;57680;54.292;18.598;2023-02-01T14:44:48;9.25;;;2.08;;
70270;SDS011;57680;54.292;18.598;2023-02-01T14:52:37;7.18;;;2.00;;
70270;SDS011;57680;54.292;18.598;2023-02-01T14:55:29;8.80;;;1.88;;
70270;SDS011;57680;54.292;18.598;2023-02-01T14:58:01;4.78;;;1.52;;
70270;SDS011;57680;54.292;18.598;2023-02-01T15:00:31;4.83;;;1.47;;
70270;SDS011;57680;54.292;18.598;2023-02-01T15:05:58;9.10;;;2.25;;
70270;SDS011;57680;54.292;18.598;2023-02-01T15:08:30;6.88;;;1.95;;
70270;SDS011;57680;54.292;18.598;2023-02-01T15:10:58;9.20;;;1.75;;
70270;SDS011;57680;54.292;18.598;2023-02-01T15:13:31;6.07;;;1.30;;
70270;SDS011;57680;54.292;18.598;2023-02-01T15:16:03;4.70;;;1.15;;
70270;SDS011;57680;54.292;18.598;2023-02-01T15:18:34;4.13;;;1.45;;
70270;SDS011;57680;54.292;18.598;2023-02-01T15:21:00;6.60;;;1.20;;
70270;SDS011;57680;54.292;18.598;2023-02-01T15:23:27;4.90;;;1.17;;
70270;SDS011;57680;54.292;18.598;2023-02-01T15:25:53;5.72;;;1.70;;
70270;SDS011;57680;54.292;18.598;2023-02-01T15:28:20;5.07;;;1.00;;
70270;SDS011;57680;54.292;18.598;2023-02-01T15:30:56;4.50;;;1.23;;
70270;SDS011;57680;54.292;18.598;2023-02-01T15:33:23;5.28;;;1.48;;
70270;SDS011;57680;54.292;18.598;2023-02-01T15:36:15;3.67;;;1.08;;
70270;SDS011;57680;54.292;18.598;2023-02-01T15:38:44;5.85;;;1.50;;
70270;SDS011;57680;54.292;18.598;2023-02-01T15:41:20;7.90;;;1.70;;
70270;SDS011;57680;54.292;18.598;2023-02-01T15:46:36;6.72;;;1.67;;
70270;SDS011;57680;54.292;18.598;2023-02-01T15:49:04;5.60;;;1.70;;
70270;SDS011;57680;54.292;18.598;2023-02-01T15:51:43;5.03;;;1.40;;
70270;SDS011;57680;54.292;18.598;2023-02-01T15:54:17;10.63;;;2.40;;
70270;SDS011;57680;54.292;18.598;2023-02-01T15:56:51;8.13;;;2.40;;
70270;SDS011;57680;54.292;18.598;2023-02-01T15:59:20;7.35;;;2.00;;
70270;SDS011;57680;54.292;18.598;2023-02-01T16:01:53;10.70;;;2.58;;
70270;SDS011;57680;54.292;18.598;2023-02-01T16:04:19;9.87;;;2.70;;
70270;SDS011;57680;54.292;18.598;2023-02-01T16:06:53;8.73;;;2.05;;
70270;SDS011;57680;54.292;18.598;2023-02-01T16:09:32;8.77;;;1.95;;
70270;SDS011;57680;54.292;18.598;2023-02-01T16:12:29;7.68;;;2.50;;
70270;SDS011;57680;54.292;18.598;2023-02-01T16:15:03;7.80;;;2.50;;
70270;SDS011;57680;54.292;18.598;2023-02-01T16:17:29;10.20;;;2.78;;
70270;SDS011;57680;54.292;18.598;2023-02-01T16:19:54;11.60;;;3.13;;
70270;SDS011;57680;54.292;18.598;2023-02-01T16:22:20;12.85;;;3.20;;
70270;SDS011;57680;54.292;18.598;2023-02-01T16:24:46;12.87;;;3.37;;
70270;SDS011;57680;54.292;18.598;2023-02-01T16:27:11;12.67;;;3.47;;
70270;SDS011;57680;54.292;18.598;2023-02-01T16:29:37;10.68;;;3.17;;
70270;SDS011;57680;54.292;18.598;2023-02-01T16:32:02;9.93;;;2.60;;
70270;SDS011;57680;54.292;18.598;2023-02-01T16:34:29;9.93;;;3.10;;
70270;SDS011;57680;54.292;18.598;2023-02-01T16:36:54;9.97;;;2.37;;
70270;SDS011;57680;54.292;18.598;2023-02-01T16:39:22;11.45;;;2.90;;
70270;SDS011;57680;54.292;18.598;2023-02-01T16:41:48;13.45;;;3.60;;
70270;SDS011;57680;54.292;18.598;2023-02-01T16:44:14;10.30;;;2.70;;
70270;SDS011;57680;54.292;18.598;2023-02-01T16:46:40;15.88;;;2.65;;
70270;SDS011;57680;54.292;18.598;2023-02-01T16:49:15;11.23;;;2.93;;
70270;SDS011;57680;54.292;18.598;2023-02-01T16:51:47;11.95;;;3.15;;
70270;SDS011;57680;54.292;18.598;2023-02-01T16:54:14;10.00;;;2.72;;
70270;SDS011;57680;54.292;18.598;2023-02-01T16:56:40;12.77;;;2.97;;
70270;SDS011;57680;54.292;18.598;2023-02-01T16:59:07;11.25;;;3.20;;
70270;SDS011;57680;54.292;18.598;2023-02-01T17:01:33;10.73;;;2.60;;
70270;SDS011;57680;54.292;18.598;2023-02-01T17:03:59;9.77;;;2.80;;
70270;SDS011;57680;54.292;18.598;2023-02-01T17:06:25;8.93;;;2.40;;
70270;SDS011;57680;54.292;18.598;2023-02-01T17:08:53;9.57;;;2.88;;
70270;SDS011;57680;54.292;18.598;2023-02-01T17:11:20;10.07;;;2.50;;
70270;SDS011;57680;54.292;18.598;2023-02-01T17:13:46;31.45;;;3.08;;
70270;SDS011;57680;54.292;18.598;2023-02-01T17:18:44;11.30;;;2.28;;
70270;SDS011;57680;54.292;18.598;2023-02-01T17:21:15;13.05;;;2.50;;
70270;SDS011;57680;54.292;18.598;2023-02-01T17:23:41;13.80;;;2.50;;
70270;SDS011;57680;54.292;18.598;2023-02-01T17:26:08;11.77;;;2.17;;
70270;SDS011;57680;54.292;18.598;2023-02-01T17:28:34;13.27;;;2.28;;
70270;SDS011;57680;54.292;18.598;2023-02-01T17:30:59;10.17;;;1.77;;
70270;SDS011;57680;54.292;18.598;2023-02-01T17:33:27;11.30;;;2.05;;
70270;SDS011;57680;54.292;18.598;2023-02-01T17:35:55;12.90;;;2.10;;
70270;SDS011;57680;54.292;18.598;2023-02-01T17:38:22;10.45;;;2.40;;